createdAt,value
2022-09-09T00:01:21.724Z,15.60
2022-09-09T00:03:57.880Z,15.50
2022-09-09T00:06:31.181Z,15.50
2022-09-09T00:09:20.081Z,15.50
2022-09-09T00:11:59.599Z,15.40
2022-09-09T00:14:35.188Z,15.30
2022-09-09T00:17:13.297Z,15.40
2022-09-09T00:19:51.593Z,15.40
2022-09-09T00:22:21.689Z,15.40
2022-09-09T00:25:11.526Z,15.30
2022-09-09T00:27:47.025Z,15.30
2022-09-09T00:30:24.027Z,15.30
2022-09-09T00:32:55.859Z,15.30
2022-09-09T00:35:27.339Z,15.30
2022-09-09T00:38:02.779Z,15.20
2022-09-09T00:40:42.692Z,15.00
2022-09-09T00:43:34.365Z,14.80
2022-09-09T00:46:16.141Z,14.80
2022-09-09T00:48:52.491Z,14.80
2022-09-09T00:51:34.722Z,14.80
2022-09-09T00:54:23.427Z,14.70
2022-09-09T00:57:07.781Z,14.70
2022-09-09T00:59:54.381Z,14.70
2022-09-09T01:02:45.374Z,14.70
2022-09-09T01:05:23.168Z,14.60
2022-09-09T01:07:54.064Z,14.60
2022-09-09T01:10:42.442Z,14.50
2022-09-09T01:13:26.043Z,14.50
2022-09-09T01:15:59.717Z,14.50
2022-09-09T01:18:44.886Z,14.40
2022-09-09T01:21:31.335Z,14.30
2022-09-09T01:24:15.300Z,14.40
2022-09-09T01:27:19.532Z,14.20
2022-09-09T01:29:50.707Z,14.20
2022-09-09T01:33:03.917Z,14.20
2022-09-09T01:35:55.832Z,14.20
2022-09-09T01:38:28.344Z,14.20
2022-09-09T01:40:59.771Z,14.10
2022-09-09T01:43:39.723Z,14.10
2022-09-09T01:46:12.440Z,14.10
2022-09-09T01:48:42.941Z,14.00
2022-09-09T01:51:13.982Z,13.90
2022-09-09T01:53:48.815Z,13.90
2022-09-09T01:56:42.680Z,13.90
2022-09-09T01:59:54.168Z,14.00
2022-09-09T02:02:36.555Z,14.00
2022-09-09T02:05:36.504Z,13.90
2022-09-09T02:08:24.446Z,13.90
2022-09-09T02:11:18.218Z,13.90
2022-09-09T02:13:58.216Z,13.90
2022-09-09T02:16:29.036Z,13.90
2022-09-09T02:19:02.391Z,13.90
2022-09-09T02:21:53.528Z,13.80
2022-09-09T02:24:23.314Z,13.80
2022-09-09T02:27:08.701Z,13.80
2022-09-09T02:29:42.452Z,13.80
2022-09-09T02:32:20.509Z,13.80
2022-09-09T02:34:58.820Z,13.80
2022-09-09T02:37:32.960Z,13.70
2022-09-09T02:40:09.126Z,13.70
2022-09-09T02:42:46.050Z,13.70
2022-09-09T02:45:17.936Z,13.70
2022-09-09T02:48:14.889Z,13.70
2022-09-09T02:51:11.636Z,13.70
2022-09-09T02:53:57.829Z,13.70
2022-09-09T02:56:31.119Z,13.70
2022-09-09T02:58:59.712Z,13.70
2022-09-09T03:01:27.577Z,13.70
2022-09-09T03:04:01.686Z,13.70
2022-09-09T03:06:33.161Z,13.70
2022-09-09T03:09:12.874Z,13.70
2022-09-09T03:11:40.641Z,13.80
2022-09-09T03:14:12.657Z,13.60
2022-09-09T03:16:45.400Z,13.70
2022-09-09T03:19:13.163Z,13.70
2022-09-09T03:21:41.953Z,13.70
2022-09-09T03:24:13.390Z,13.80
2022-09-09T03:26:42.141Z,13.80
2022-09-09T03:29:14.318Z,13.80
2022-09-09T03:31:46.521Z,13.70
2022-09-09T03:34:21.750Z,13.60
2022-09-09T03:36:53.116Z,13.80
2022-09-09T03:39:23.631Z,13.80
2022-09-09T03:41:53.647Z,13.70
2022-09-09T03:44:21.834Z,13.70
2022-09-09T03:46:57.655Z,13.60
2022-09-09T03:49:34.875Z,13.60
2022-09-09T03:52:19.398Z,13.60
2022-09-09T03:54:51.354Z,13.60
2022-09-09T03:57:22.908Z,13.60
2022-09-09T03:59:51.236Z,13.60
2022-09-09T04:02:23.430Z,13.60
2022-09-09T04:04:51.060Z,13.60
2022-09-09T04:07:22.332Z,13.60
2022-09-09T04:09:50.378Z,13.60
2022-09-09T04:12:21.020Z,13.60
2022-09-09T04:14:54.409Z,13.60
2022-09-09T04:17:22.019Z,13.60
2022-09-09T04:19:50.043Z,13.50
2022-09-09T04:22:19.800Z,13.50
2022-09-09T04:24:50.585Z,13.50
2022-09-09T04:27:26.366Z,13.50
2022-09-09T04:30:00.193Z,13.60
2022-09-09T04:32:40.982Z,13.60
2022-09-09T04:35:10.783Z,13.60
2022-09-09T04:37:44.039Z,13.60
2022-09-09T04:40:15.823Z,13.60
2022-09-09T04:42:52.110Z,13.60
2022-09-09T04:45:19.818Z,13.60
2022-09-09T04:47:59.314Z,13.70
2022-09-09T04:50:27.485Z,13.70
2022-09-09T04:53:11.942Z,13.70
2022-09-09T04:55:45.156Z,13.70
2022-09-09T04:58:14.327Z,13.80
2022-09-09T05:00:47.739Z,13.80
2022-09-09T05:03:17.015Z,13.80
2022-09-09T05:05:48.580Z,13.60
2022-09-09T05:08:24.125Z,13.70
2022-09-09T05:10:53.500Z,13.70
2022-09-09T05:13:30.000Z,13.70
2022-09-09T05:16:09.255Z,13.80
2022-09-09T05:18:48.975Z,13.80
2022-09-09T05:21:32.670Z,13.80
2022-09-09T05:24:04.685Z,13.90
2022-09-09T05:26:33.810Z,14.00
2022-09-09T05:29:02.856Z,13.90
2022-09-09T05:31:32.414Z,14.00
2022-09-09T05:34:06.696Z,14.00
2022-09-09T05:36:40.393Z,14.10
2022-09-09T05:39:08.276Z,14.10
2022-09-09T05:41:36.849Z,14.20
2022-09-09T05:44:10.551Z,14.30
2022-09-09T05:46:40.516Z,14.40
2022-09-09T05:49:09.564Z,14.40
2022-09-09T05:51:40.146Z,14.50
2022-09-09T05:54:19.627Z,14.50
2022-09-09T05:57:00.596Z,14.60
2022-09-09T05:59:31.236Z,14.60
2022-09-09T06:01:58.982Z,14.70
2022-09-09T06:04:40.319Z,14.80
2022-09-09T06:07:14.453Z,14.90
2022-09-09T06:09:44.822Z,15.00
2022-09-09T06:12:15.458Z,14.90
2022-09-09T06:14:48.090Z,14.90
2022-09-09T06:17:15.841Z,15.00
2022-09-09T06:19:42.981Z,15.00
2022-09-09T06:22:13.655Z,15.10
2022-09-09T06:24:40.757Z,15.10
2022-09-09T06:27:08.383Z,15.20
2022-09-09T06:29:37.088Z,15.20
2022-09-09T06:32:04.611Z,15.20
2022-09-09T06:34:32.111Z,15.30
2022-09-09T06:37:00.270Z,15.30
2022-09-09T06:39:34.068Z,15.40
2022-09-09T06:42:01.329Z,15.50
2022-09-09T06:44:57.343Z,15.50
2022-09-09T06:47:45.621Z,15.60
2022-09-09T06:50:12.593Z,15.70
2022-09-09T06:52:40.335Z,15.80
2022-09-09T06:55:09.256Z,15.90
2022-09-09T06:57:37.890Z,16.00
2022-09-09T07:00:16.735Z,16.10
2022-09-09T07:02:43.788Z,16.20
2022-09-09T07:05:12.947Z,16.20
2022-09-09T07:07:42.059Z,16.20
2022-09-09T07:10:10.165Z,16.20
2022-09-09T07:12:38.722Z,16.30
2022-09-09T07:15:09.706Z,16.30
2022-09-09T07:17:36.786Z,16.20
2022-09-09T07:20:05.208Z,16.20
2022-09-09T07:22:34.158Z,16.20
2022-09-09T07:25:02.444Z,16.20
2022-09-09T07:27:29.926Z,16.30
2022-09-09T07:29:57.067Z,16.30
2022-09-09T07:32:26.626Z,16.30
2022-09-09T07:34:53.621Z,16.30
2022-09-09T07:37:21.573Z,16.30
2022-09-09T07:39:49.263Z,16.40
2022-09-09T07:42:18.343Z,16.40
2022-09-09T07:44:45.361Z,16.50
2022-09-09T07:47:15.229Z,16.50
2022-09-09T07:49:47.276Z,16.50
2022-09-09T07:52:19.616Z,16.60
2022-09-09T07:54:51.614Z,16.60
2022-09-09T07:57:19.473Z,16.60
2022-09-09T07:59:47.696Z,16.60
2022-09-09T08:02:14.880Z,16.70
2022-09-09T08:04:42.262Z,16.70
2022-09-09T08:07:09.454Z,16.70
2022-09-09T08:09:45.105Z,16.70
2022-09-09T08:12:19.433Z,16.70
2022-09-09T08:14:46.485Z,16.70
2022-09-09T08:17:13.478Z,16.70
2022-09-09T08:19:40.572Z,16.80
2022-09-09T08:22:12.138Z,16.80
2022-09-09T08:24:40.769Z,16.90
2022-09-09T08:27:08.697Z,16.90
2022-09-09T08:29:35.758Z,16.90
2022-09-09T08:32:03.260Z,16.90
2022-09-09T08:34:31.571Z,17.00
2022-09-09T08:37:01.762Z,17.00
2022-09-09T08:39:35.123Z,17.00
2022-09-09T08:42:42.205Z,17.10
2022-09-09T08:45:22.717Z,17.20
2022-09-09T08:48:27.799Z,17.20
2022-09-09T08:51:02.861Z,17.20
2022-09-09T08:53:49.234Z,17.20
2022-09-09T08:56:28.165Z,17.20
2022-09-09T08:59:00.383Z,17.30
2022-09-09T09:02:04.037Z,17.30
2022-09-09T09:05:19.188Z,17.40
2022-09-09T09:07:52.751Z,17.40
2022-09-09T09:10:50.448Z,17.50
2022-09-09T09:13:26.040Z,17.60
2022-09-09T09:16:07.613Z,17.70
2022-09-09T09:18:35.291Z,17.80
2022-09-09T09:21:34.563Z,18.00
2022-09-09T09:24:02.649Z,18.10
2022-09-09T09:26:36.299Z,18.30
2022-09-09T09:29:18.268Z,18.30
2022-09-09T09:31:57.864Z,18.40
2022-09-09T09:34:26.286Z,18.50
2022-09-09T09:37:04.547Z,18.60
2022-09-09T09:42:26.827Z,18.90
2022-09-09T09:44:57.345Z,19.00
2022-09-09T09:47:25.021Z,19.00
2022-09-09T09:50:21.532Z,19.10
2022-09-09T09:53:00.425Z,19.10
2022-09-09T09:55:32.199Z,19.20
2022-09-09T10:00:36.048Z,19.50
2022-09-09T10:03:31.618Z,19.70
2022-09-09T10:05:59.614Z,20.00
2022-09-09T10:08:28.063Z,20.20
2022-09-09T10:11:27.098Z,20.40
2022-09-09T10:14:25.279Z,20.50
2022-09-09T10:17:20.901Z,20.80
2022-09-09T10:20:38.217Z,20.90
2022-09-09T10:23:38.473Z,21.10
2022-09-09T10:26:43.653Z,21.50
2022-09-09T10:29:45.642Z,21.50
2022-09-09T10:32:59.754Z,21.50
2022-09-09T10:35:45.370Z,21.60
2022-09-09T10:38:42.759Z,21.70
2022-09-09T10:41:20.192Z,21.70
2022-09-09T10:44:14.336Z,21.50
2022-09-09T10:47:01.732Z,21.40
2022-09-09T10:50:00.354Z,21.50
2022-09-09T10:52:44.144Z,21.40
2022-09-09T10:55:15.956Z,21.40
2022-09-09T10:57:46.343Z,21.50
2022-09-09T11:00:34.934Z,21.50
2022-09-09T11:03:06.171Z,21.50
2022-09-09T11:05:44.185Z,21.40
2022-09-09T11:08:20.958Z,21.40
2022-09-09T11:11:20.178Z,21.40
2022-09-09T11:13:54.892Z,21.40
2022-09-09T11:17:02.141Z,21.30
2022-09-09T11:19:36.480Z,21.20
2022-09-09T11:22:15.929Z,21.20
2022-09-09T11:24:52.079Z,21.20
2022-09-09T11:27:29.000Z,21.10
2022-09-09T11:30:44.250Z,21.10
2022-09-09T11:33:27.899Z,21.10
2022-09-09T11:36:17.301Z,21.00
2022-09-09T11:38:49.808Z,21.00
2022-09-09T11:41:21.544Z,21.10
2022-09-09T11:43:55.403Z,21.10
2022-09-09T11:46:34.937Z,21.10
2022-09-09T11:49:29.180Z,21.10
2022-09-09T11:51:56.298Z,21.10
2022-09-09T11:54:45.563Z,21.10
2022-09-09T11:57:35.594Z,21.20
2022-09-09T12:00:03.699Z,21.20
2022-09-09T12:02:51.270Z,21.20
2022-09-09T12:05:21.004Z,21.30
2022-09-09T12:07:54.873Z,21.30
2022-09-09T12:10:30.407Z,21.30
2022-09-09T12:13:16.205Z,21.30
2022-09-09T12:16:00.245Z,21.30
2022-09-09T12:18:37.906Z,21.30
2022-09-09T12:21:27.713Z,21.20
2022-09-09T12:24:09.135Z,21.20
2022-09-09T12:26:41.140Z,21.20
2022-09-09T12:29:20.382Z,21.20
2022-09-09T12:31:53.529Z,21.20
2022-09-09T12:34:36.946Z,21.20
2022-09-09T12:37:26.578Z,21.30
2022-09-09T12:39:59.579Z,21.20
2022-09-09T12:42:28.183Z,21.30
2022-09-09T12:45:00.434Z,21.30
2022-09-09T12:47:51.123Z,21.20
2022-09-09T12:50:31.263Z,21.20
2022-09-09T12:53:07.416Z,21.20
2022-09-09T12:55:38.010Z,21.20
2022-09-09T12:58:07.074Z,21.20
2022-09-09T13:00:35.597Z,21.20
2022-09-09T13:03:15.697Z,21.10
2022-09-09T13:05:42.855Z,21.00
2022-09-09T13:08:11.905Z,21.10
2022-09-09T13:11:05.684Z,21.00
2022-09-09T13:13:37.163Z,21.00
2022-09-09T13:16:08.206Z,21.00
2022-09-09T13:18:43.232Z,21.00
2022-09-09T13:21:10.469Z,21.00
2022-09-09T13:23:39.128Z,21.00
2022-09-09T13:26:22.518Z,21.00
2022-09-09T13:28:50.592Z,21.00
2022-09-09T13:31:25.584Z,20.90
2022-09-09T13:33:54.214Z,21.00
2022-09-09T13:36:42.549Z,20.90
2022-09-09T13:39:19.885Z,20.90
2022-09-09T13:41:49.654Z,20.90
2022-09-09T13:44:29.904Z,20.90
2022-09-09T13:47:15.600Z,20.90
2022-09-09T13:49:43.157Z,20.80
2022-09-09T13:52:15.490Z,20.80
2022-09-09T13:54:43.260Z,20.80
2022-09-09T13:57:21.059Z,20.70
2022-09-09T14:00:05.678Z,20.70
2022-09-09T14:02:33.800Z,20.60
2022-09-09T14:05:00.895Z,20.60
2022-09-09T14:07:28.325Z,20.50
2022-09-09T14:09:55.458Z,20.50
2022-09-09T14:12:22.685Z,20.40
2022-09-09T14:14:50.749Z,20.40
2022-09-09T14:17:18.542Z,20.30
2022-09-09T14:19:47.060Z,20.30
2022-09-09T14:22:14.206Z,20.30
2022-09-09T14:24:41.989Z,20.30
2022-09-09T14:27:09.046Z,20.40
2022-09-09T14:29:35.960Z,20.30
2022-09-09T14:32:03.148Z,20.30
2022-09-09T14:34:30.186Z,20.30
2022-09-09T14:36:57.151Z,20.40
2022-09-09T14:39:24.086Z,20.30
2022-09-09T14:41:51.251Z,20.30
2022-09-09T14:44:18.467Z,20.20
2022-09-09T14:46:45.691Z,20.20
2022-09-09T14:49:13.844Z,20.10
2022-09-09T14:51:40.902Z,20.00
2022-09-09T14:54:07.864Z,20.00
2022-09-09T14:56:38.052Z,20.00
2022-09-09T14:59:05.561Z,20.00
2022-09-09T15:01:33.286Z,19.90
2022-09-09T15:04:03.647Z,19.90
2022-09-09T15:06:34.632Z,19.90
2022-09-09T15:09:02.086Z,19.90
2022-09-09T15:11:31.595Z,19.90
2022-09-09T15:13:59.626Z,19.90
2022-09-09T15:16:29.064Z,19.90
2022-09-09T15:18:58.516Z,19.70
2022-09-09T15:21:28.280Z,19.70
2022-09-09T15:23:56.601Z,19.70
2022-09-09T15:26:24.009Z,19.70
2022-09-09T15:28:51.971Z,19.70
2022-09-09T15:31:19.938Z,19.70
2022-09-09T15:33:50.313Z,19.70
2022-09-09T15:36:25.481Z,19.70
2022-09-09T15:38:53.211Z,19.60
2022-09-09T15:41:22.358Z,19.50
2022-09-09T15:43:51.783Z,19.50
2022-09-09T15:46:18.801Z,19.50
2022-09-09T15:48:48.122Z,19.50
2022-09-09T15:51:40.123Z,19.50
2022-09-09T15:54:04.651Z,19.40
2022-09-09T15:56:33.283Z,19.40
2022-09-09T15:59:03.264Z,19.40
2022-09-09T16:01:32.227Z,19.40
2022-09-09T16:04:01.150Z,19.30
2022-09-09T16:06:29.899Z,19.40
2022-09-09T16:08:59.504Z,19.40
2022-09-09T16:11:29.807Z,19.30
2022-09-09T16:13:57.051Z,19.30
2022-09-09T16:16:26.838Z,19.30
2022-09-09T16:19:11.264Z,19.30
2022-09-09T16:21:47.214Z,19.30
2022-09-09T16:24:19.173Z,19.30
2022-09-09T16:26:49.263Z,19.30
2022-09-09T16:29:18.433Z,19.20
2022-09-09T16:31:47.183Z,19.20
2022-09-09T16:34:15.695Z,19.10
2022-09-09T16:36:45.284Z,19.00
2022-09-09T16:39:15.199Z,19.00
2022-09-09T16:41:44.071Z,19.10
2022-09-09T16:44:13.600Z,19.00
2022-09-09T16:46:42.568Z,18.90
2022-09-09T16:49:12.528Z,18.80
2022-09-09T16:51:45.427Z,18.70
2022-09-09T16:54:14.983Z,18.80
2022-09-09T16:56:44.885Z,18.90
2022-09-09T16:59:19.048Z,18.80
2022-09-09T17:01:51.402Z,18.70
2022-09-09T17:04:25.016Z,18.80
2022-09-09T17:06:54.401Z,18.80
2022-09-09T17:09:23.774Z,18.80
2022-09-09T17:11:53.457Z,18.80
2022-09-09T17:14:22.360Z,18.80
2022-09-09T17:16:49.859Z,18.80
2022-09-09T17:19:17.173Z,18.70
2022-09-09T17:22:06.326Z,18.70
2022-09-09T17:24:31.635Z,18.70
2022-09-09T17:26:58.874Z,18.60
2022-09-09T17:29:26.887Z,18.60
2022-09-09T17:31:54.494Z,18.50
2022-09-09T17:35:12.402Z,18.40
2022-09-09T17:37:39.843Z,18.40
2022-09-09T17:40:07.731Z,18.40
2022-09-09T17:42:35.342Z,18.40
2022-09-09T17:45:02.333Z,18.40
2022-09-09T17:47:29.372Z,18.50
2022-09-09T17:49:56.372Z,18.40
2022-09-09T17:52:23.974Z,18.40
2022-09-09T17:54:51.528Z,18.30
2022-09-09T17:57:20.134Z,18.30
2022-09-09T17:59:47.161Z,18.20
2022-09-09T18:02:14.257Z,18.20
2022-09-09T18:04:42.868Z,18.20
2022-09-09T18:07:09.883Z,18.20
2022-09-09T18:09:39.073Z,18.20
2022-09-09T18:12:06.895Z,18.10
2022-09-09T18:14:35.505Z,18.00
2022-09-09T18:17:04.366Z,18.00
2022-09-09T18:19:33.203Z,18.00
2022-09-09T18:22:02.668Z,18.00
2022-09-09T18:24:30.558Z,18.00
2022-09-09T18:26:57.603Z,18.00
2022-09-09T18:29:25.630Z,17.90
2022-09-09T18:31:55.274Z,18.00
2022-09-09T18:34:23.769Z,18.00
2022-09-09T18:36:56.289Z,17.90
2022-09-09T18:39:27.705Z,17.90
2022-09-09T18:42:00.839Z,17.90
2022-09-09T18:44:31.402Z,17.90
2022-09-09T18:46:59.403Z,17.90
2022-09-09T18:49:26.900Z,17.90
2022-09-09T18:51:54.191Z,17.90
2022-09-09T18:54:29.879Z,17.80
2022-09-09T18:56:57.475Z,17.90
2022-09-09T18:59:25.116Z,17.90
2022-09-09T19:01:53.474Z,17.80
2022-09-09T19:04:22.605Z,17.90
2022-09-09T19:06:58.313Z,17.80
2022-09-09T19:09:29.210Z,17.70
2022-09-09T19:11:56.882Z,17.70
2022-09-09T19:14:24.282Z,17.70
2022-09-09T19:16:52.059Z,17.80
2022-09-09T19:19:25.448Z,17.80
2022-09-09T19:21:54.410Z,17.80
2022-09-09T19:24:30.809Z,17.70
2022-09-09T19:27:01.930Z,17.70
2022-09-09T19:29:32.175Z,17.80
2022-09-09T19:32:36.797Z,17.80
2022-09-09T19:34:50.829Z,17.70
2022-09-09T19:37:18.846Z,17.70
2022-09-09T19:39:47.190Z,17.70
2022-09-09T19:42:14.425Z,17.70
2022-09-09T19:44:41.653Z,17.70
2022-09-09T19:47:08.725Z,17.70
2022-09-09T19:49:37.361Z,17.60
2022-09-09T19:52:05.926Z,17.60
2022-09-09T19:54:33.183Z,17.60
2022-09-09T19:57:01.313Z,17.60
2022-09-09T19:59:28.718Z,17.60
2022-09-09T20:01:59.234Z,17.60
2022-09-09T20:04:26.443Z,17.50
2022-09-09T20:06:54.309Z,17.50
2022-09-09T20:09:22.091Z,17.60
2022-09-09T20:11:50.198Z,17.60
2022-09-09T20:14:18.321Z,17.60
2022-09-09T20:16:46.561Z,17.50
2022-09-09T20:19:16.278Z,17.50
2022-09-09T20:21:47.750Z,17.50
2022-09-09T20:24:20.004Z,17.40
2022-09-09T20:26:48.249Z,17.40
2022-09-09T20:29:18.773Z,17.40
2022-09-09T20:31:46.643Z,17.40
2022-09-09T20:34:16.259Z,17.40
2022-09-09T20:36:43.476Z,17.40
2022-09-09T20:39:16.843Z,17.40
2022-09-09T20:41:45.468Z,17.40
2022-09-09T20:44:18.081Z,17.30
2022-09-09T20:46:50.604Z,17.30
2022-09-09T20:49:20.577Z,17.30
2022-09-09T20:51:49.844Z,17.30
2022-09-09T20:54:21.313Z,17.20
2022-09-09T20:56:48.520Z,17.10
2022-09-09T20:59:18.543Z,17.20
2022-09-09T21:01:47.678Z,17.00
2022-09-09T21:04:17.576Z,17.00
2022-09-09T21:06:44.900Z,17.00
2022-09-09T21:09:12.113Z,17.10
2022-09-09T21:11:39.136Z,17.00
2022-09-09T21:14:06.190Z,17.00
2022-09-09T21:16:33.258Z,17.00
2022-09-09T21:19:00.314Z,16.90
2022-09-09T21:21:27.904Z,17.00
2022-09-09T21:23:57.500Z,17.00
2022-09-09T21:26:25.480Z,17.00
2022-09-09T21:28:53.586Z,17.00
2022-09-09T21:31:27.034Z,17.00
2022-09-09T21:33:54.643Z,16.90
2022-09-09T21:36:21.752Z,16.90
2022-09-09T21:38:48.751Z,16.80
2022-09-09T21:41:16.785Z,16.80
2022-09-09T21:43:46.776Z,16.80
2022-09-09T21:46:17.618Z,16.80
2022-09-09T21:48:44.999Z,16.80
2022-09-09T21:51:14.896Z,16.70
2022-09-09T21:53:42.349Z,16.80
2022-09-09T21:56:18.613Z,16.80
2022-09-09T21:58:47.317Z,16.80
2022-09-09T22:01:18.619Z,16.80
2022-09-09T22:03:46.427Z,16.80
2022-09-09T22:06:17.853Z,16.80
2022-09-09T22:08:46.627Z,16.70
2022-09-09T22:11:19.328Z,16.80
2022-09-09T22:13:46.499Z,16.70
2022-09-09T22:16:20.016Z,16.60
2022-09-09T22:18:52.907Z,16.60
2022-09-09T22:21:20.458Z,16.60
2022-09-09T22:23:55.771Z,16.60
2022-09-09T22:26:23.461Z,16.60
2022-09-09T22:28:50.874Z,16.60
2022-09-09T22:31:17.866Z,16.60
2022-09-09T22:33:45.149Z,16.60
2022-09-09T22:36:12.727Z,16.60
2022-09-09T22:38:39.883Z,16.60
2022-09-09T22:41:07.578Z,16.60
2022-09-09T22:43:34.530Z,16.60
2022-09-09T22:46:02.589Z,16.40
2022-09-09T22:48:37.603Z,16.40
2022-09-09T22:51:07.044Z,16.40
2022-09-09T22:53:35.747Z,16.30
2022-09-09T22:56:05.124Z,16.30
2022-09-09T22:58:34.240Z,16.40
2022-09-09T23:01:07.025Z,16.40
2022-09-09T23:03:34.134Z,16.40
2022-09-09T23:06:04.137Z,16.40
2022-09-09T23:08:34.786Z,16.30
2022-09-09T23:11:08.855Z,16.30
2022-09-09T23:13:41.602Z,16.20
2022-09-09T23:16:20.259Z,16.20
2022-09-09T23:18:48.495Z,16.20
2022-09-09T23:21:16.062Z,16.20
2022-09-09T23:23:44.359Z,16.20
2022-09-09T23:26:13.876Z,16.20
2022-09-09T23:28:43.982Z,16.20
2022-09-09T23:31:13.702Z,16.10
2022-09-09T23:33:41.801Z,16.10
2022-09-09T23:36:11.705Z,16.10
2022-09-09T23:38:40.157Z,16.10
2022-09-09T23:41:09.817Z,16.10
2022-09-09T23:48:58.900Z,16.00
2022-09-09T23:51:28.228Z,16.00
2022-09-09T23:53:57.227Z,16.00
2022-09-09T23:56:27.313Z,16.00
2022-09-09T23:58:55.005Z,16.00
